Time;durP1;ratioP1;P1;durP2;ratioP2;P2;SDS_P1;SDS_P2;PMS_P1;PMS_P2;Temp;Humidity;BMP_temperature;BMP_pressure;BME280_temperature;BME280_humidity;BME280_pressure;Samples;Min_cycle;Max_cycle;Signal;HPM_P1;HPM_P2
2022/01/19 00:01:47;;;;;;;;;;;4.80;99.10;;;;;;5051499;28;19966;-69
2022/01/19 00:04:13;;;;;;;;;;;4.80;99.10;;;;;;5048987;28;20266;-70
2022/01/19 00:06:38;;;;;;;;;;;4.80;99.10;;;;;;5051680;28;19916;-69
2022/01/19 00:09:04;;;;;;;;;;;4.80;99.00;;;;;;5050442;28;19927;-70
2022/01/19 00:11:29;;;;;;;;;;;4.80;99.10;;;;;;5048929;28;19944;-70
2022/01/19 00:13:55;;;;;;;;;;;4.80;99.00;;;;;;5052330;28;19979;-70
2022/01/19 00:16:21;;;;;;;;;;;4.70;99.00;;;;;;5049877;28;20376;-70
2022/01/19 00:18:46;;;;;;;;;;;4.70;98.90;;;;;;5049412;28;20599;-70
2022/01/19 00:21:12;;;;;;;;;;;4.70;98.90;;;;;;5052622;28;19908;-70
2022/01/19 00:23:37;;;;;;;;;;;4.70;98.90;;;;;;5047771;28;19917;-70
2022/01/19 00:26:03;;;;;;;;;;;4.70;98.90;;;;;;5049967;28;19960;-70
2022/01/19 00:28:28;;;;;;;;;;;4.70;98.90;;;;;;5048633;28;19971;-70
2022/01/19 00:30:54;;;;;;;;;;;4.60;98.90;;;;;;5049198;28;19915;-70
2022/01/19 00:33:20;;;;;;;;;;;4.60;98.90;;;;;;5049205;28;19951;-70
2022/01/19 00:35:46;;;;;;;;;;;4.60;98.80;;;;;;5048304;28;20027;-69
2022/01/19 00:38:12;;;;;;;;;;;4.60;98.80;;;;;;5064619;28;19913;-70
2022/01/19 00:40:38;;;;;;;;;;;4.60;98.80;;;;;;5047664;28;19931;-70
2022/01/19 00:43:04;;;;;;;;;;;4.60;98.80;;;;;;5050085;28;20962;-69
2022/01/19 00:45:29;;;;;;;;;;;4.60;98.80;;;;;;5048488;28;19917;-70
2022/01/19 00:47:55;;;;;;;;;;;4.50;98.70;;;;;;5047417;28;19952;-70
2022/01/19 00:50:24;;;;;;;;;;;4.50;98.70;;;;;;5050636;28;20876;-70
2022/01/19 00:52:51;;;;;;;;;;;4.50;98.70;;;;;;5049793;28;19912;-70
2022/01/19 00:55:17;;;;;;;;;;;4.50;98.70;;;;;;5051135;28;19924;-70
2022/01/19 00:57:43;;;;;;;;;;;4.50;98.70;;;;;;5048123;28;19917;-69
2022/01/19 01:00:12;;;;;;;;;;;4.50;98.70;;;;;;5048278;28;20549;-70
2022/01/19 01:02:38;;;;;;;;;;;4.40;98.60;;;;;;5049872;28;19917;-69
2022/01/19 01:05:04;;;;;;;;;;;4.40;98.60;;;;;;5048789;28;19920;-70
2022/01/19 01:07:33;;;;;;;;;;;4.40;98.60;;;;;;5048768;28;19912;-69
2022/01/19 01:09:58;;;;;;;;;;;4.40;98.60;;;;;;5060923;28;19927;-69
2022/01/19 01:12:32;;;;;;;;;;;4.40;98.50;;;;;;5048262;28;19913;-70
2022/01/19 01:20:25;;;;;;;;;;;4.30;98.40;;;;;;5047080;28;19998;-70
2022/01/19 01:22:51;;;;;;;;;;;4.30;98.40;;;;;;5049723;28;20353;-70
2022/01/19 01:25:16;;;;;;;;;;;4.30;98.30;;;;;;5053215;28;19961;-70
2022/01/19 01:27:42;;;;;;;;;;;4.30;98.30;;;;;;5047760;28;19927;-69
2022/01/19 01:30:08;;;;;;;;;;;4.30;98.30;;;;;;5047056;28;19931;-70
2022/01/19 01:32:34;;;;;;;;;;;4.20;98.30;;;;;;5048741;28;20023;-70
2022/01/19 01:34:59;;;;;;;;;;;4.20;98.30;;;;;;5046519;28;20035;-69
2022/01/19 01:37:25;;;;;;;;;;;4.20;98.20;;;;;;5047437;28;19919;-70
2022/01/19 01:39:50;;;;;;;;;;;4.20;98.30;;;;;;5046519;28;19913;-70
2022/01/19 01:42:17;;;;;;;;;;;4.20;98.20;;;;;;5049082;28;19920;-70
2022/01/19 01:44:46;;;;;;;;;;;4.20;98.30;;;;;;5046450;28;20024;-70
2022/01/19 01:47:13;;;;;;;;;;;4.20;98.20;;;;;;5046253;28;19933;-69
2022/01/19 01:55:04;;;;;;;;;;;4.10;98.20;;;;;;5044283;28;19963;-69
2022/01/19 01:57:30;;;;;;;;;;;4.10;98.10;;;;;;5044982;28;19932;-69
2022/01/19 01:59:55;;;;;;;;;;;4.10;98.10;;;;;;5046726;28;20416;-69
2022/01/19 02:02:21;;;;;;;;;;;4.10;98.20;;;;;;5043919;28;20000;-69
2022/01/19 02:04:46;;;;;;;;;;;4.10;98.10;;;;;;5031149;28;20369;-69
2022/01/19 02:10:01;;;;;;;;;;;4.00;98.10;;;;;;5048351;28;19924;-69
2022/01/19 02:23:40;;;;;;;;;;;4.00;98.00;;;;;;5048465;28;20641;-69
2022/01/19 02:26:12;;;;;;;;;;;4.00;98.10;;;;;;5044686;28;20061;-70
2022/01/19 02:36:53;;;;;;;;;;;4.00;98.20;;;;;;5045450;28;20413;-69
2022/01/19 02:42:06;;;;;;;;;;;4.00;98.20;;;;;;5045028;28;19927;-69
2022/01/19 02:46:35;;;;;;;;;;;4.00;98.20;;;;;;5052116;28;19962;-69
2022/01/19 02:49:49;;;;;;;;;;;4.00;98.30;;;;;;5050304;28;19923;-69
2022/01/19 02:52:16;;;;;;;;;;;4.00;98.40;;;;;;5061574;28;19916;-69
2022/01/19 02:54:42;;;;;;;;;;;4.00;98.40;;;;;;5048965;28;20384;-69
2022/01/19 02:57:11;;;;;;;;;;;4.00;98.50;;;;;;5046767;28;19951;-69
2022/01/19 02:59:58;;;;;;;;;;;;;;;;;;;;;
2022/01/19 03:10:12;;;;;;;;;;;4.00;98.70;;;;;;5047152;28;19919;-69
2022/01/19 03:12:37;;;;;;;;;;;4.00;98.70;;;;;;5046190;28;19916;-69
2022/01/19 03:15:03;;;;;;;;;;;4.00;98.90;;;;;;5049461;28;20365;-69
2022/01/19 03:17:29;;;;;;;;;;;4.00;98.70;;;;;;5046453;28;20011;-69
2022/01/19 03:19:54;;;;;;;;;;;4.00;98.70;;;;;;5051415;28;20428;-69
2022/01/19 03:22:26;;;;;;;;;;;4.00;98.70;;;;;;5045788;28;19917;-69
2022/01/19 03:24:52;;;;;;;;;;;4.00;98.80;;;;;;5046290;28;19925;-69
2022/01/19 03:27:18;;;;;;;;;;;4.00;98.80;;;;;;5051272;28;19967;-69
2022/01/19 03:29:44;;;;;;;;;;;4.10;98.80;;;;;;5045231;28;20343;-69
2022/01/19 03:32:10;;;;;;;;;;;4.10;98.80;;;;;;5049344;28;19913;-69
2022/01/19 03:34:36;;;;;;;;;;;4.10;98.80;;;;;;5045168;28;20349;-69
2022/01/19 03:37:02;;;;;;;;;;;4.10;98.90;;;;;;5051482;28;19967;-69
2022/01/19 03:39:27;;;;;;;;;;;4.10;98.90;;;;;;5043401;28;19913;-69
2022/01/19 03:41:53;;;;;;;;;;;4.10;98.90;;;;;;5048220;28;19921;-69
2022/01/19 03:44:18;;;;;;;;;;;4.10;98.90;;;;;;5040791;28;20035;-69
2022/01/19 03:46:56;;;;;;;;;;;4.10;98.90;;;;;;5048591;28;20624;-69
2022/01/19 03:49:25;;;;;;;;;;;4.10;98.90;;;;;;5027202;28;19913;-69
2022/01/19 03:51:51;;;;;;;;;;;4.10;98.90;;;;;;5066596;28;20448;-69
2022/01/19 03:54:17;;;;;;;;;;;4.10;99.00;;;;;;5045140;28;19948;-69
2022/01/19 03:56:42;;;;;;;;;;;4.20;99.00;;;;;;5050771;28;19944;-69
2022/01/19 03:59:08;;;;;;;;;;;4.10;99.00;;;;;;5028442;28;19921;-69
2022/01/19 04:01:35;;;;;;;;;;;4.10;99.00;;;;;;5049372;28;20159;-69
2022/01/19 04:06:39;;;;;;;;;;;4.20;99.00;;;;;;5045534;28;20432;-69
2022/01/19 04:09:05;;;;;;;;;;;4.20;99.00;;;;;;5045385;28;19979;-69
2022/01/19 04:11:30;;;;;;;;;;;4.20;99.00;;;;;;5026196;28;20366;-69
2022/01/19 04:16:31;;;;;;;;;;;4.20;99.00;;;;;;5046610;28;19920;-69
2022/01/19 04:19:17;;;;;;;;;;;4.20;99.00;;;;;;5054205;28;19994;-69
2022/01/19 04:21:42;;;;;;;;;;;4.20;99.10;;;;;;5048267;28;19919;-69
2022/01/19 04:24:08;;;;;;;;;;;4.20;99.00;;;;;;5052012;28;19920;-69
2022/01/19 04:26:33;;;;;;;;;;;4.20;99.10;;;;;;5029624;28;19925;-69
2022/01/19 04:28:59;;;;;;;;;;;4.20;99.10;;;;;;5052141;28;19913;-69
2022/01/19 04:31:24;;;;;;;;;;;4.20;99.10;;;;;;5047235;28;19916;-70
2022/01/19 04:33:50;;;;;;;;;;;4.20;99.10;;;;;;5052510;28;20552;-69
2022/01/19 04:36:31;;;;;;;;;;;4.20;99.10;;;;;;5046123;28;20275;-69
2022/01/19 04:44:57;;;;;;;;;;;4.20;99.10;;;;;;5056055;28;19962;-69
2022/01/19 05:03:28;;;;;;;;;;;4.30;99.20;;;;;;5046511;28;19959;-69
2022/01/19 05:06:01;;;;;;;;;;;4.30;99.20;;;;;;5051928;28;19927;-70
2022/01/19 05:13:39;;;;;;;;;;;4.30;99.20;;;;;;5046773;28;19958;-69
2022/01/19 05:16:04;;;;;;;;;;;4.30;99.20;;;;;;5058381;28;19912;-69
2022/01/19 05:18:30;;;;;;;;;;;4.30;99.20;;;;;;5029357;28;19920;-69
2022/01/19 05:20:56;;;;;;;;;;;4.30;99.20;;;;;;5060762;28;19912;-69
2022/01/19 05:23:22;;;;;;;;;;;4.30;99.20;;;;;;5044013;28;19921;-69
2022/01/19 05:25:47;;;;;;;;;;;4.30;99.20;;;;;;5050352;28;19913;-69
2022/01/19 05:28:13;;;;;;;;;;;4.30;99.20;;;;;;5047056;28;19913;-69
2022/01/19 05:30:39;;;;;;;;;;;4.30;99.20;;;;;;5052332;28;19959;-69
2022/01/19 05:33:04;;;;;;;;;;;4.30;99.20;;;;;;5051140;28;19927;-69
2022/01/19 05:35:30;;;;;;;;;;;4.30;99.20;;;;;;5062323;28;20534;-69
2022/01/19 05:37:55;;;;;;;;;;;4.30;99.20;;;;;;5055564;28;19920;-69
2022/01/19 05:40:21;;;;;;;;;;;4.30;99.20;;;;;;5050245;28;19970;-69
2022/01/19 05:42:48;;;;;;;;;;;4.30;99.10;;;;;;5056107;28;19913;-69
2022/01/19 05:45:14;;;;;;;;;;;4.30;99.20;;;;;;5045494;28;19956;-69
2022/01/19 05:47:40;;;;;;;;;;;4.30;99.10;;;;;;5055574;28;19963;-69
2022/01/19 05:50:06;;;;;;;;;;;4.30;99.10;;;;;;5028796;28;19908;-69
2022/01/19 05:52:31;;;;;;;;;;;4.30;99.10;;;;;;5051581;28;19909;-69
2022/01/19 05:54:57;;;;;;;;;;;4.30;99.20;;;;;;5045478;28;19909;-69
2022/01/19 05:57:23;;;;;;;;;;;4.30;99.10;;;;;;5055896;28;19919;-69
2022/01/19 05:59:49;;;;;;;;;;;4.30;99.10;;;;;;5044475;28;20612;-69
2022/01/19 06:02:16;;;;;;;;;;;4.30;99.10;;;;;;5031464;28;20439;-69
2022/01/19 06:04:41;;;;;;;;;;;4.30;99.10;;;;;;5043341;28;20015;-69
2022/01/19 06:07:07;;;;;;;;;;;4.30;99.10;;;;;;5067870;28;19912;-69
2022/01/19 06:09:48;;;;;;;;;;;4.30;99.10;;;;;;5050744;28;19983;-69
2022/01/19 06:12:14;;;;;;;;;;;4.30;99.10;;;;;;5048315;28;20445;-70
2022/01/19 06:14:40;;;;;;;;;;;4.30;99.10;;;;;;5049104;28;19921;-69
2022/01/19 06:17:07;;;;;;;;;;;4.30;99.10;;;;;;5046050;28;19917;-69
2022/01/19 06:19:33;;;;;;;;;;;4.30;99.00;;;;;;5052821;28;20293;-69
2022/01/19 06:21:58;;;;;;;;;;;4.30;99.00;;;;;;5045762;28;19919;-69
2022/01/19 06:24:24;;;;;;;;;;;4.30;99.10;;;;;;5055130;28;19916;-69
2022/01/19 06:26:49;;;;;;;;;;;4.30;99.10;;;;;;5028555;28;19917;-70
2022/01/19 06:29:15;;;;;;;;;;;4.40;99.10;;;;;;5050276;28;19959;-69
2022/01/19 06:31:41;;;;;;;;;;;4.40;99.00;;;;;;5044731;28;19919;-69
2022/01/19 06:34:06;;;;;;;;;;;4.40;99.10;;;;;;5054908;28;19961;-69
2022/01/19 06:36:32;;;;;;;;;;;4.30;99.00;;;;;;5039617;28;19916;-69
2022/01/19 06:38:57;;;;;;;;;;;4.30;99.00;;;;;;5050045;28;19916;-69
2022/01/19 06:41:23;;;;;;;;;;;4.30;99.00;;;;;;5043522;28;20015;-69
2022/01/19 06:43:49;;;;;;;;;;;4.40;99.10;;;;;;5045286;28;19913;-69
2022/01/19 06:46:14;;;;;;;;;;;4.40;99.00;;;;;;5046634;28;19916;-69
2022/01/19 06:48:40;;;;;;;;;;;4.40;99.00;;;;;;5049760;28;20011;-69
2022/01/19 06:51:05;;;;;;;;;;;4.40;99.00;;;;;;5053701;28;20036;-69
2022/01/19 06:53:31;;;;;;;;;;;4.40;99.00;;;;;;5044084;28;19946;-69
2022/01/19 06:55:57;;;;;;;;;;;4.40;99.00;;;;;;5048032;28;20326;-69
2022/01/19 06:58:23;;;;;;;;;;;4.40;99.00;;;;;;5045490;28;20018;-69
2022/01/19 07:00:49;;;;;;;;;;;4.40;99.00;;;;;;5051542;28;19916;-69
2022/01/19 07:03:15;;;;;;;;;;;4.40;99.00;;;;;;5044205;28;19919;-69
2022/01/19 07:05:40;;;;;;;;;;;4.40;99.00;;;;;;5052825;28;19920;-69
2022/01/19 07:08:06;;;;;;;;;;;4.30;99.00;;;;;;5043718;28;19947;-69
2022/01/19 07:10:32;;;;;;;;;;;4.40;99.00;;;;;;5047865;28;19913;-69
2022/01/19 07:12:58;;;;;;;;;;;4.40;99.00;;;;;;5043313;28;19916;-69
2022/01/19 07:15:24;;;;;;;;;;;4.40;99.00;;;;;;5052210;28;19943;-69
2022/01/19 07:17:49;;;;;;;;;;;4.30;99.00;;;;;;5046972;28;19947;-69
2022/01/19 07:20:15;;;;;;;;;;;4.30;99.00;;;;;;5048313;28;20380;-69
2022/01/19 07:22:40;;;;;;;;;;;4.40;99.00;;;;;;5044809;28;20268;-69
2022/01/19 07:25:06;;;;;;;;;;;4.40;99.10;;;;;;5047062;28;20592;-69
2022/01/19 07:27:31;;;;;;;;;;;4.40;99.00;;;;;;5054301;28;19912;-69
2022/01/19 07:29:57;;;;;;;;;;;4.40;99.10;;;;;;5044956;28;20240;-69
2022/01/19 07:32:24;;;;;;;;;;;4.40;99.00;;;;;;5055975;28;20599;-69
2022/01/19 07:34:49;;;;;;;;;;;4.40;99.00;;;;;;5044839;28;19956;-69
2022/01/19 07:37:15;;;;;;;;;;;4.40;99.00;;;;;;5053296;28;19952;-69
2022/01/19 07:39:41;;;;;;;;;;;4.40;99.00;;;;;;5044396;28;19913;-69
2022/01/19 07:42:06;;;;;;;;;;;4.40;99.00;;;;;;5054436;28;19909;-70
2022/01/19 07:44:32;;;;;;;;;;;4.40;99.00;;;;;;5043198;28;19917;-70
2022/01/19 07:46:58;;;;;;;;;;;4.40;99.00;;;;;;5047150;28;19951;-69
2022/01/19 07:49:23;;;;;;;;;;;4.40;99.00;;;;;;5049049;28;19917;-69
2022/01/19 07:51:49;;;;;;;;;;;4.40;98.90;;;;;;5052512;28;19913;-69
2022/01/19 07:54:14;;;;;;;;;;;4.40;98.90;;;;;;5029997;28;20282;-69
2022/01/19 07:56:40;;;;;;;;;;;4.40;99.00;;;;;;5035114;28;19913;-69
2022/01/19 07:59:06;;;;;;;;;;;4.40;98.90;;;;;;5046913;28;19909;-69
2022/01/19 08:01:31;;;;;;;;;;;4.30;98.90;;;;;;5048329;28;19995;-69
2022/01/19 08:03:58;;;;;;;;;;;4.30;98.90;;;;;;5032888;28;19917;-69
2022/01/19 08:06:24;;;;;;;;;;;4.30;99.00;;;;;;5046913;28;19921;-69
2022/01/19 08:08:49;;;;;;;;;;;4.30;99.10;;;;;;5056744;28;19932;-69
2022/01/19 08:11:15;;;;;;;;;;;4.30;99.10;;;;;;5029992;28;19915;-69
2022/01/19 08:13:40;;;;;;;;;;;4.30;99.00;;;;;;5050826;28;19915;-69
2022/01/19 08:16:06;;;;;;;;;;;4.30;99.10;;;;;;5045912;28;19920;-69
2022/01/19 08:18:31;;;;;;;;;;;4.30;99.10;;;;;;5055590;28;19909;-69
2022/01/19 08:20:57;;;;;;;;;;;4.40;99.00;;;;;;5047225;28;20509;-69
2022/01/19 08:23:22;;;;;;;;;;;4.40;99.00;;;;;;5048779;28;19992;-69
2022/01/19 08:25:48;;;;;;;;;;;4.40;99.10;;;;;;5050514;28;20621;-69
2022/01/19 08:28:13;;;;;;;;;;;4.30;99.00;;;;;;5053264;28;19962;-69
2022/01/19 08:30:40;;;;;;;;;;;4.40;99.00;;;;;;5030738;28;19920;-69
2022/01/19 08:33:05;;;;;;;;;;;4.40;99.00;;;;;;5053645;28;19919;-69
2022/01/19 08:35:31;;;;;;;;;;;4.30;99.00;;;;;;5054428;28;20385;-69
2022/01/19 08:37:56;;;;;;;;;;;4.40;98.90;;;;;;5049908;28;19909;-69
2022/01/19 08:40:27;;;;;;;;;;;4.40;99.00;;;;;;5050320;28;19928;-69
2022/01/19 08:42:53;;;;;;;;;;;4.30;98.80;;;;;;5046429;28;20005;-69
2022/01/19 08:45:18;;;;;;;;;;;4.40;98.90;;;;;;5053575;28;20397;-69
2022/01/19 08:47:46;;;;;;;;;;;4.40;99.00;;;;;;5046876;28;20015;-69
2022/01/19 08:50:13;;;;;;;;;;;4.40;99.00;;;;;;5054625;28;19950;-69
2022/01/19 08:52:38;;;;;;;;;;;4.40;98.90;;;;;;5045071;28;19927;-69
2022/01/19 08:55:04;;;;;;;;;;;4.40;99.20;;;;;;5051754;28;20007;-69
2022/01/19 08:57:30;;;;;;;;;;;4.40;98.90;;;;;;5030180;28;20055;-69
2022/01/19 08:59:55;;;;;;;;;;;4.40;98.90;;;;;;5071046;28;19909;-69
2022/01/19 09:02:21;;;;;;;;;;;4.40;98.80;;;;;;5049575;28;19921;-69
2022/01/19 09:04:46;;;;;;;;;;;4.40;98.90;;;;;;5050613;28;19913;-69
2022/01/19 09:07:12;;;;;;;;;;;4.40;98.90;;;;;;5045835;28;19921;-69
2022/01/19 09:09:38;;;;;;;;;;;4.40;98.90;;;;;;5049689;28;19917;-69
2022/01/19 09:12:03;;;;;;;;;;;4.40;98.90;;;;;;5052787;28;19916;-69
2022/01/19 09:14:30;;;;;;;;;;;4.40;98.90;;;;;;5049375;28;19927;-69
2022/01/19 09:16:56;;;;;;;;;;;4.40;98.90;;;;;;5048264;28;19919;-69
2022/01/19 09:19:21;;;;;;;;;;;4.40;98.70;;;;;;5048085;28;19912;-69
2022/01/19 09:21:48;;;;;;;;;;;4.40;98.80;;;;;;5052510;28;19909;-69
2022/01/19 09:24:13;;;;;;;;;;;4.40;98.80;;;;;;5047412;28;19913;-69
2022/01/19 09:26:39;;;;;;;;;;;4.40;98.90;;;;;;5040550;28;20565;-69
2022/01/19 09:29:05;;;;;;;;;;;4.40;98.90;;;;;;5045088;28;20007;-69
2022/01/19 09:31:33;;;;;;;;;;;4.40;98.90;;;;;;5050572;28;20313;-69
2022/01/19 09:34:14;;;;;;;;;;;4.40;98.90;;;;;;5027143;28;19921;-69
2022/01/19 09:36:48;;;;;;;;;;;4.40;98.60;;;;;;5052344;28;19991;-69
2022/01/19 09:39:14;;;;;;;;;;;4.40;98.90;;;;;;5042551;28;19921;-69
2022/01/19 09:41:41;;;;;;;;;;;4.40;98.90;;;;;;5050784;28;19952;-69
2022/01/19 09:44:07;;;;;;;;;;;4.40;98.80;;;;;;5046789;28;19948;-69
2022/01/19 09:46:33;;;;;;;;;;;4.40;98.80;;;;;;5047871;28;19924;-69
2022/01/19 09:48:59;;;;;;;;;;;4.40;98.90;;;;;;5048663;28;20074;-69
2022/01/19 09:51:25;;;;;;;;;;;4.40;98.90;;;;;;5048656;28;20353;-69
2022/01/19 09:53:51;;;;;;;;;;;4.40;98.70;;;;;;5049964;28;19920;-69
2022/01/19 09:56:18;;;;;;;;;;;4.40;98.80;;;;;;5047452;28;19916;-69
2022/01/19 09:58:44;;;;;;;;;;;4.40;98.80;;;;;;5045511;28;19921;-69
2022/01/19 10:01:10;;;;;;;;;;;4.50;98.80;;;;;;5030131;28;19916;-69
2022/01/19 10:03:35;;;;;;;;;;;4.50;98.80;;;;;;5049353;28;19909;-69
2022/01/19 10:06:05;;;;;;;;;;;4.50;98.80;;;;;;5042294;28;20524;-71
2022/01/19 10:08:30;;;;;;;;;;;4.50;98.80;;;;;;5055769;28;19912;-71
2022/01/19 10:11:05;;;;;;;;;;;4.50;98.70;;;;;;5044436;28;19920;-71
2022/01/19 10:19:13;;;;;;;;;;;4.50;98.80;;;;;;5056629;28;19928;-71
2022/01/19 10:21:54;;;;;;;;;;;4.50;98.70;;;;;;5028806;28;19952;-71
2022/01/19 10:24:31;;;;;;;;;;;4.50;98.70;;;;;;5048127;28;19978;-71
2022/01/19 10:27:16;;;;;;;;;;;4.50;98.80;;;;;;5048566;28;19917;-71
2022/01/19 10:29:42;;;;;;;;;;;4.50;98.70;;;;;;5050741;28;19913;-69
2022/01/19 10:32:07;;;;;;;;;;;4.50;98.60;;;;;;5044621;28;19927;-69
2022/01/19 10:34:34;;;;;;;;;;;4.50;98.70;;;;;;5070473;28;19920;-69
2022/01/19 10:37:02;;;;;;;;;;;4.50;98.70;;;;;;5027782;28;19912;-69
2022/01/19 10:39:45;;;;;;;;;;;4.60;98.70;;;;;;5050189;28;20263;-69
2022/01/19 10:42:13;;;;;;;;;;;4.60;98.70;;;;;;5025444;28;19992;-69
2022/01/19 10:44:41;;;;;;;;;;;4.60;98.70;;;;;;5050865;28;19916;-69
2022/01/19 10:47:07;;;;;;;;;;;4.60;98.60;;;;;;5042383;28;20409;-69
2022/01/19 10:49:46;;;;;;;;;;;4.60;98.60;;;;;;5049632;28;19920;-69
2022/01/19 10:52:24;;;;;;;;;;;4.60;98.70;;;;;;5044081;28;19928;-69
2022/01/19 10:54:50;;;;;;;;;;;4.60;98.50;;;;;;5061756;28;19913;-69
2022/01/19 10:57:15;;;;;;;;;;;4.60;98.60;;;;;;5040623;28;19924;-69
2022/01/19 10:59:41;;;;;;;;;;;4.60;98.60;;;;;;5046484;28;19969;-69
2022/01/19 11:02:09;;;;;;;;;;;4.60;98.60;;;;;;5049804;28;19956;-69
2022/01/19 11:04:37;;;;;;;;;;;4.60;98.60;;;;;;5046366;28;20369;-69
2022/01/19 11:07:04;;;;;;;;;;;4.60;98.60;;;;;;5048841;28;20472;-69
2022/01/19 11:09:31;;;;;;;;;;;4.70;98.60;;;;;;5045636;28;19951;-69
2022/01/19 11:11:59;;;;;;;;;;;4.70;98.60;;;;;;5047493;28;19913;-69
2022/01/19 11:14:25;;;;;;;;;;;4.70;98.50;;;;;;5046439;28;19952;-69
2022/01/19 11:16:51;;;;;;;;;;;4.70;98.50;;;;;;5048782;28;19928;-69
2022/01/19 11:19:17;;;;;;;;;;;4.70;98.50;;;;;;5045158;28;19913;-69
2022/01/19 11:22:01;;;;;;;;;;;4.70;98.40;;;;;;5051217;28;19920;-69
2022/01/19 11:24:27;;;;;;;;;;;4.70;98.40;;;;;;5045674;28;19913;-69
2022/01/19 11:26:54;;;;;;;;;;;4.70;98.50;;;;;;5050759;28;19923;-71
2022/01/19 11:29:23;;;;;;;;;;;4.70;98.40;;;;;;5045793;28;20254;-69
2022/01/19 11:31:50;;;;;;;;;;;4.80;98.40;;;;;;5049354;28;19959;-69
2022/01/19 11:34:35;;;;;;;;;;;4.70;98.50;;;;;;5044691;28;19913;-69
2022/01/19 11:37:02;;;;;;;;;;;4.80;98.50;;;;;;5054127;28;19959;-69
2022/01/19 11:39:30;;;;;;;;;;;4.80;98.40;;;;;;5044400;28;19966;-69
2022/01/19 11:41:56;;;;;;;;;;;4.80;98.50;;;;;;5046896;28;19908;-69
2022/01/19 11:44:28;;;;;;;;;;;4.80;98.40;;;;;;5042334;28;19913;-69
2022/01/19 11:46:55;;;;;;;;;;;4.80;98.40;;;;;;5048757;28;19920;-69
2022/01/19 11:49:39;;;;;;;;;;;4.80;98.40;;;;;;5027010;28;20008;-69
2022/01/19 11:52:05;;;;;;;;;;;4.80;98.40;;;;;;5044603;28;19909;-69
2022/01/19 11:54:33;;;;;;;;;;;4.80;98.40;;;;;;5041086;28;19920;-69
2022/01/19 11:57:02;;;;;;;;;;;4.80;98.40;;;;;;5046010;28;19916;-69
2022/01/19 11:59:48;;;;;;;;;;;4.80;98.30;;;;;;5043170;28;19966;-69
2022/01/19 12:02:33;;;;;;;;;;;4.90;98.70;;;;;;5018054;28;19913;-69
2022/01/19 12:04:58;;;;;;;;;;;4.90;98.50;;;;;;5045218;28;19928;-69
2022/01/19 12:07:37;;;;;;;;;;;4.90;98.40;;;;;;5046450;28;19917;-69
2022/01/19 12:10:03;;;;;;;;;;;4.80;98.30;;;;;;5042388;28;19912;-69
2022/01/19 12:12:33;;;;;;;;;;;4.90;98.40;;;;;;5046944;28;20009;-69
2022/01/19 12:15:04;;;;;;;;;;;4.90;98.40;;;;;;5041627;28;20011;-70
2022/01/19 12:17:54;;;;;;;;;;;4.90;98.10;;;;;;5046855;28;19917;-69
2022/01/19 12:20:39;;;;;;;;;;;4.90;98.40;;;;;;5040105;28;19991;-70
2022/01/19 12:23:23;;;;;;;;;;;4.90;98.30;;;;;;5050264;28;19975;-69
2022/01/19 12:25:52;;;;;;;;;;;4.90;98.40;;;;;;5043963;28;19938;-69
2022/01/19 12:28:36;;;;;;;;;;;4.90;98.20;;;;;;5046266;28;19916;-69
2022/01/19 12:31:21;;;;;;;;;;;4.80;98.40;;;;;;5030267;28;19963;-69
2022/01/19 12:34:02;;;;;;;;;;;4.90;98.20;;;;;;5047812;28;19912;-69
2022/01/19 12:36:47;;;;;;;;;;;4.80;98.40;;;;;;5044668;28;19916;-69
2022/01/19 12:39:25;;;;;;;;;;;4.90;98.30;;;;;;5051884;28;19955;-69
2022/01/19 12:42:00;;;;;;;;;;;4.90;98.30;;;;;;5046919;28;19967;-69
2022/01/19 12:44:35;;;;;;;;;;;4.90;98.40;;;;;;5049234;28;19924;-69
2022/01/19 12:47:23;;;;;;;;;;;4.90;98.20;;;;;;5044495;28;20340;-69
2022/01/19 12:49:50;;;;;;;;;;;4.90;98.40;;;;;;5041263;28;20569;-69
2022/01/19 12:52:16;;;;;;;;;;;4.90;98.40;;;;;;5045696;28;19943;-69
2022/01/19 12:54:42;;;;;;;;;;;4.90;98.40;;;;;;5048795;28;20253;-69
2022/01/19 12:57:13;;;;;;;;;;;4.80;98.40;;;;;;5036125;28;19917;-70
2022/01/19 12:59:38;;;;;;;;;;;4.90;98.40;;;;;;5048927;28;20019;-69
2022/01/19 13:02:04;;;;;;;;;;;4.90;98.20;;;;;;5027376;28;21059;-69
2022/01/19 13:04:31;;;;;;;;;;;4.80;98.40;;;;;;5048716;28;20138;-69
2022/01/19 13:07:10;;;;;;;;;;;4.80;98.50;;;;;;5031706;28;19925;-69
2022/01/19 13:09:40;;;;;;;;;;;4.90;98.40;;;;;;5029524;28;19909;-69
2022/01/19 13:12:10;;;;;;;;;;;4.80;98.30;;;;;;5046722;28;20436;-69
2022/01/19 13:14:36;;;;;;;;;;;4.80;98.40;;;;;;5047283;28;19920;-71
2022/01/19 13:17:01;;;;;;;;;;;4.80;98.30;;;;;;5046571;28;19913;-69
2022/01/19 13:19:27;;;;;;;;;;;4.80;98.40;;;;;;5046592;28;19913;-69
2022/01/19 13:22:01;;;;;;;;;;;4.80;98.40;;;;;;5044658;28;20000;-69
2022/01/19 13:24:27;;;;;;;;;;;4.80;98.40;;;;;;5031507;28;19994;-69
2022/01/19 13:26:54;;;;;;;;;;;4.80;98.30;;;;;;5048922;28;19921;-69
2022/01/19 13:29:26;;;;;;;;;;;4.80;98.40;;;;;;5037110;28;19919;-69
2022/01/19 13:32:22;;;;;;;;;;;4.80;98.40;;;;;;5044785;28;20300;-69
2022/01/19 13:34:57;;;;;;;;;;;4.80;98.30;;;;;;5043791;28;19917;-69
2022/01/19 13:37:24;;;;;;;;;;;4.80;98.50;;;;;;5050709;28;19944;-69
2022/01/19 13:40:09;;;;;;;;;;;4.80;98.40;;;;;;5049005;28;19917;-69
2022/01/19 13:42:43;;;;;;;;;;;4.80;98.50;;;;;;5046773;28;19913;-69
2022/01/19 13:45:19;;;;;;;;;;;4.80;98.40;;;;;;5043298;28;19932;-69
2022/01/19 13:47:56;;;;;;;;;;;4.80;98.40;;;;;;5043188;28;20332;-69
2022/01/19 13:50:23;;;;;;;;;;;4.80;98.30;;;;;;5043830;28;19920;-69
2022/01/19 13:52:48;;;;;;;;;;;4.80;98.40;;;;;;5034723;28;19920;-69
2022/01/19 13:55:22;;;;;;;;;;;4.80;98.50;;;;;;5045370;28;19942;-69
2022/01/19 13:57:48;;;;;;;;;;;4.80;98.40;;;;;;5048494;28;19970;-69
2022/01/19 14:00:22;;;;;;;;;;;4.80;98.40;;;;;;5050281;28;20435;-69
2022/01/19 14:03:00;;;;;;;;;;;4.80;98.40;;;;;;5048091;28;19912;-69
2022/01/19 14:05:44;;;;;;;;;;;4.80;98.50;;;;;;5035198;28;19988;-69
2022/01/19 14:08:10;;;;;;;;;;;4.80;98.40;;;;;;5043952;28;19912;-69
2022/01/19 14:10:44;;;;;;;;;;;4.80;98.40;;;;;;5050019;28;19995;-69
2022/01/19 14:13:22;;;;;;;;;;;4.80;98.30;;;;;;5048777;28;19916;-69
2022/01/19 14:15:47;;;;;;;;;;;4.80;98.40;;;;;;5045049;28;19920;-69
2022/01/19 14:18:13;;;;;;;;;;;4.80;98.40;;;;;;5046959;28;20449;-69
2022/01/19 14:20:40;;;;;;;;;;;4.80;98.40;;;;;;5042682;28;20478;-69
2022/01/19 14:23:11;;;;;;;;;;;4.80;98.40;;;;;;5045466;28;20000;-69
2022/01/19 14:25:37;;;;;;;;;;;4.80;98.40;;;;;;5044968;28;19916;-69
2022/01/19 14:28:11;;;;;;;;;;;4.80;98.40;;;;;;5045244;28;20357;-69
2022/01/19 14:30:37;;;;;;;;;;;4.80;98.40;;;;;;5050184;28;20571;-69
2022/01/19 14:33:09;;;;;;;;;;;4.80;98.40;;;;;;5045770;28;20039;-69
2022/01/19 14:35:35;;;;;;;;;;;4.80;98.30;;;;;;5046178;28;19925;-69
2022/01/19 14:38:04;;;;;;;;;;;4.80;98.40;;;;;;5047686;28;19943;-69
2022/01/19 14:40:30;;;;;;;;;;;4.80;98.50;;;;;;5047964;28;19917;-69
2022/01/19 14:42:56;;;;;;;;;;;4.80;98.40;;;;;;5044573;28;19920;-69
2022/01/19 14:45:34;;;;;;;;;;;4.80;98.40;;;;;;5044759;28;20424;-69
2022/01/19 14:48:10;;;;;;;;;;;4.80;98.50;;;;;;5046151;28;19927;-69
2022/01/19 14:50:36;;;;;;;;;;;4.80;98.50;;;;;;5049452;28;20014;-69
2022/01/19 14:53:03;;;;;;;;;;;4.80;98.50;;;;;;5050030;28;19913;-69
2022/01/19 14:55:31;;;;;;;;;;;4.80;98.50;;;;;;5043994;28;20008;-69
2022/01/19 14:57:57;;;;;;;;;;;4.80;98.50;;;;;;5047843;28;19913;-69
2022/01/19 15:00:24;;;;;;;;;;;4.80;98.50;;;;;;5043418;28;19939;-69
2022/01/19 15:02:57;;;;;;;;;;;4.80;98.50;;;;;;5048020;28;19920;-69
2022/01/19 15:05:22;;;;;;;;;;;4.80;98.50;;;;;;5044159;28;19920;-69
2022/01/19 15:07:48;;;;;;;;;;;4.80;98.60;;;;;;5024419;28;19921;-69
2022/01/19 15:10:14;;;;;;;;;;;4.80;98.60;;;;;;5046501;28;19921;-69
2022/01/19 15:12:39;;;;;;;;;;;4.80;98.50;;;;;;5059342;28;19917;-69
2022/01/19 15:15:07;;;;;;;;;;;4.80;98.50;;;;;;5046741;28;19931;-69
2022/01/19 15:17:32;;;;;;;;;;;4.80;98.50;;;;;;5049734;28;20547;-69
2022/01/19 15:19:58;;;;;;;;;;;4.70;98.50;;;;;;5045882;28;19917;-69
2022/01/19 15:22:26;;;;;;;;;;;4.70;98.60;;;;;;5049728;28;19917;-69
2022/01/19 15:24:52;;;;;;;;;;;4.70;98.60;;;;;;5047128;28;19913;-69
2022/01/19 15:27:18;;;;;;;;;;;4.70;98.60;;;;;;5046777;28;19916;-69
2022/01/19 15:29:43;;;;;;;;;;;4.70;98.60;;;;;;5032293;28;19927;-69
2022/01/19 15:32:09;;;;;;;;;;;4.70;98.60;;;;;;5044920;28;19916;-69
2022/01/19 15:34:34;;;;;;;;;;;4.70;98.60;;;;;;5049025;28;19920;-69
2022/01/19 15:37:00;;;;;;;;;;;4.70;98.60;;;;;;5044692;28;19995;-69
2022/01/19 15:39:25;;;;;;;;;;;4.70;98.70;;;;;;5050609;28;20366;-69
2022/01/19 15:41:51;;;;;;;;;;;4.70;98.60;;;;;;5043265;28;19918;-69
2022/01/19 15:44:17;;;;;;;;;;;4.70;98.60;;;;;;5043369;28;19920;-69
2022/01/19 15:46:42;;;;;;;;;;;4.70;98.70;;;;;;5044816;28;19917;-69
2022/01/19 15:49:08;;;;;;;;;;;4.70;98.70;;;;;;5048831;28;19916;-69
2022/01/19 15:51:33;;;;;;;;;;;4.70;98.70;;;;;;5027763;28;19921;-69
2022/01/19 15:53:59;;;;;;;;;;;4.70;98.80;;;;;;5048366;28;20019;-69
2022/01/19 15:56:25;;;;;;;;;;;4.70;98.80;;;;;;5029531;28;19920;-69
2022/01/19 15:58:50;;;;;;;;;;;4.70;98.80;;;;;;5045922;28;19921;-69
2022/01/19 16:01:16;;;;;;;;;;;4.70;98.80;;;;;;5048105;28;19913;-69